• Join FlightAware (Why Join?)
  • Login
  • US Flag 
03:36AM EDT


 

Airport Tracker/Info


-or-


 

Live Flight TrackerFlight Track Log ✈ N47498 ✈ 29-Sep-2013 ✈ KSHD - KMTN

Flight Track Log - Related Links

Times and Time Zones

All times are in EDT time to prevent confusion due to time zone crossing. See the N47498 flight status page for this flight to view local times or setup timezone preferences in your user account.

Time Position Orientation Groundspeed Altitude Reporting Facility
EDT Latitude Longitude Course Direction KTS MPH feet Rate Location/Type
04:25PM 38.5106 -78.7731 28° Northeast 116 133 5,600  Level Washington Center
04:26PM 38.5361 -78.7556 28° Northeast 105 121 6,200 600 Climbing Washington Center
04:27PM 38.5597 -78.7353 34° Northeast 99 114 6,800 360 Climbing Washington Center
04:28PM 38.5792 -78.7069 49° Northeast 94 108 7,000 60 Climbing Washington Center
04:29PM 38.6011 -78.6653 56° Northeast 111 128 7,000  Level Washington Center
04:30PM 38.6250 -78.6264 52° Northeast 126 145 7,000  Level Washington Center
04:31PM 38.6467 -78.5900 53° Northeast 126 145 7,000  Level Washington Center
04:32PM 38.6747 -78.5567 43° Northeast 126 145 7,000 -60 Level Washington Center
04:33PM 38.6983 -78.5231 48° Northeast 126 145 6,900 -60 Descending Washington Center
04:34PM 38.7222 -78.4842 52° Northeast 132 152 6,900  Level Washington Center
04:35PM 38.7519 -78.4586 34° Northeast 127 146 6,900  Level Washington Center
04:36PM 38.7819 -78.4278 39° Northeast 127 146 6,900  Level Washington Center
04:37PM 38.8136 -78.4078 26° Northeast 127 146 6,900  Level Washington Center
04:38PM 38.8436 -78.3769 39° Northeast 127 146 6,900  Level Washington Center
04:39PM 38.8756 -78.3489 34° Northeast 127 146 6,900  Level Washington Center
04:40PM 38.9053 -78.3258 31° Northeast 127 146 6,900  Level Washington Center
04:41PM 38.9369 -78.3031 29° Northeast 127 146 7,000  Climbing Washington Center
04:42PM 38.9650 -78.2719 41° Northeast 122 140 7,000  Level Washington Center
04:43PM 38.9906 -78.2383 46° Northeast 122 140 7,000 -60 Level Washington Center
04:44PM 39.0333 -78.1833 45° Northeast 143 165 6,900 -60 Descending Potomac TRACON
04:45PM 39.0667 -78.1333 49° Northeast 141 162 6,900  Level Potomac TRACON
04:46PM 39.0833 -78.1000 57° Northeast 136 157 6,900  Level Potomac TRACON
04:47PM 39.1167 -78.0667 38° Northeast 141 162 6,900 -60 Level Potomac TRACON
04:48PM 39.1500 -78.0500 21° North 142 163 6,800 -60 Descending Potomac TRACON
04:49PM 39.1833 -78.0167 38° Northeast 141 162 6,800  Level Potomac TRACON
04:50PM 39.2167 -78.0000 21° North 143 165 6,900  Climbing Potomac TRACON
04:51PM 39.2500 -77.9667 38° Northeast 142 163 6,900  Level Potomac TRACON
04:52PM 39.2667 -77.9333 57° Northeast 139 160 6,900  Level Potomac TRACON
04:53PM 39.3000 -77.9000 38° Northeast 137 158 6,900  Level Potomac TRACON
04:54PM 39.3333 -77.8833 21° North 138 159 7,000  Climbing Potomac TRACON
04:56PM 39.3667 -77.8500 38° Northeast 139 160 7,000 -60 Level Potomac TRACON
04:56PM 39.3833 -77.8167 57° Northeast 152 175 6,900 -60 Descending Potomac TRACON
04:57PM 39.4000 -77.7667 67° East 148 170 6,900  Level Potomac TRACON
04:58PM 39.4000 -77.7167 90° East 138 159 7,000 -180 Climbing Potomac TRACON
04:59PM 39.4167 -77.6667 67° East 148 170 6,600 -480 Descending Potomac TRACON
05:00PM 39.4333 -77.6167 67° East 152 175 6,100 -600 Descending Potomac TRACON
05:01PM 39.4333 -77.5500 90° East 155 178 5,500 -600 Descending Potomac TRACON
05:02PM 39.4333 -77.5000 90° East 153 176 5,000 -300 Descending Potomac TRACON
05:04PM 39.4333 -77.4500 90° East 146 168 4,900 -60 Descending Potomac TRACON
05:05PM 39.4333 -77.4000 90° East 136 157 4,900  Level Potomac TRACON
05:06PM 39.4333 -77.3500 90° East 132 152 4,900  Level Potomac TRACON
05:07PM 39.4333 -77.3000 90° East 133 153 4,900 -300 Level Potomac TRACON
05:08PM 39.4333 -77.2500 90° East 149 171 4,300 -720 Descending Potomac TRACON
05:09PM 39.4167 -77.2000 113° Southeast 158 182 3,500 -540 Descending Potomac TRACON
05:10PM 39.4000 -77.1500 113° Southeast 139 160 3,300 -60 Descending Potomac TRACON
05:11PM 39.4000 -77.1000 90° East 132 152 3,400 60 Climbing Potomac TRACON
05:12PM 39.4000 -77.0500 90° East 131 151 3,500  Climbing Potomac TRACON
05:13PM 39.4000 -77.0000 90° East 130 150 3,500 -60 Level Potomac TRACON
05:14PM 39.3833 -76.9667 123° Southeast 135 155 3,400 -480 Descending Potomac TRACON
05:15PM 39.3833 -76.9000 90° East 151 174 2,600 -600 Descending Potomac TRACON
05:16PM 39.3833 -76.8667 90° East 137 158 2,200 -420 Descending Potomac TRACON
05:17PM 39.3833 -76.8167 90° East 138 159 1,800 -180 Descending Potomac TRACON
05:18PM 39.3833 -76.7667 90° East 134 154 1,900  Climbing Potomac TRACON
05:19PM 39.3833 -76.7167 90° East 131 151 1,900  Level Potomac TRACON
05:20PM 39.3833 -76.6667 90° East 130 150 1,900 -180 Level Potomac TRACON
05:21PM 39.3667 -76.6167 113° Southeast 140 161 1,600 -300 Descending Potomac TRACON